sensor_id;sensor_type;location;lat;lon;timestamp;temperature;humidity
2391;DHT22;22957;50.824;4.360;2023-07-20T00:01:47;18.60;99.90
2391;DHT22;22957;50.824;4.360;2023-07-20T00:04:13;18.60;99.90
2391;DHT22;22957;50.824;4.360;2023-07-20T00:06:39;18.90;99.90
2391;DHT22;22957;50.824;4.360;2023-07-20T00:09:08;19.10;99.90
2391;DHT22;22957;50.824;4.360;2023-07-20T00:11:36;19.00;99.90
2391;DHT22;22957;50.824;4.360;2023-07-20T00:14:04;18.60;99.90
2391;DHT22;22957;50.824;4.360;2023-07-20T00:16:29;18.90;99.90
2391;DHT22;22957;50.824;4.360;2023-07-20T00:18:55;18.80;99.90
2391;DHT22;22957;50.824;4.360;2023-07-20T00:21:20;19.00;99.90
2391;DHT22;22957;50.824;4.360;2023-07-20T00:23:46;19.10;99.90
2391;DHT22;22957;50.824;4.360;2023-07-20T00:26:11;19.10;99.90
2391;DHT22;22957;50.824;4.360;2023-07-20T00:28:37;19.10;99.90
2391;DHT22;22957;50.824;4.360;2023-07-20T00:31:03;19.30;99.90
2391;DHT22;22957;50.824;4.360;2023-07-20T00:33:29;19.20;99.90
2391;DHT22;22957;50.824;4.360;2023-07-20T00:35:54;19.20;99.90
2391;DHT22;22957;50.824;4.360;2023-07-20T00:38:20;18.90;99.90
2391;DHT22;22957;50.824;4.360;2023-07-20T00:40:46;18.90;99.90
2391;DHT22;22957;50.824;4.360;2023-07-20T00:43:12;18.90;99.90
2391;DHT22;22957;50.824;4.360;2023-07-20T00:45:38;19.10;99.90
2391;DHT22;22957;50.824;4.360;2023-07-20T00:48:04;18.80;99.90
2391;DHT22;22957;50.824;4.360;2023-07-20T00:50:32;19.00;99.90
2391;DHT22;22957;50.824;4.360;2023-07-20T00:52:59;19.00;99.90
2391;DHT22;22957;50.824;4.360;2023-07-20T00:55:25;19.00;99.90
2391;DHT22;22957;50.824;4.360;2023-07-20T00:57:52;19.10;99.90
2391;DHT22;22957;50.824;4.360;2023-07-20T01:00:18;19.10;99.90
2391;DHT22;22957;50.824;4.360;2023-07-20T01:02:44;19.00;99.90
2391;DHT22;22957;50.824;4.360;2023-07-20T01:05:10;18.90;99.90
2391;DHT22;22957;50.824;4.360;2023-07-20T01:07:50;18.90;99.90
2391;DHT22;22957;50.824;4.360;2023-07-20T01:10:29;19.00;99.90
2391;DHT22;22957;50.824;4.360;2023-07-20T01:12:57;18.80;99.90
2391;DHT22;22957;50.824;4.360;2023-07-20T01:15:24;18.90;99.90
2391;DHT22;22957;50.824;4.360;2023-07-20T01:17:49;19.00;99.90
2391;DHT22;22957;50.824;4.360;2023-07-20T01:20:17;19.10;99.90
2391;DHT22;22957;50.824;4.360;2023-07-20T01:25:58;19.00;99.90
2391;DHT22;22957;50.824;4.360;2023-07-20T01:31:28;18.90;99.90
2391;DHT22;22957;50.824;4.360;2023-07-20T01:33:58;19.20;99.90
2391;DHT22;22957;50.824;4.360;2023-07-20T01:36:26;19.30;99.90
2391;DHT22;22957;50.824;4.360;2023-07-20T01:38:52;19.60;99.90
2391;DHT22;22957;50.824;4.360;2023-07-20T01:41:18;19.40;99.90
2391;DHT22;22957;50.824;4.360;2023-07-20T01:43:44;19.30;99.90
2391;DHT22;22957;50.824;4.360;2023-07-20T01:46:10;19.30;99.90
2391;DHT22;22957;50.824;4.360;2023-07-20T01:48:35;19.00;99.90
2391;DHT22;22957;50.824;4.360;2023-07-20T01:51:01;19.30;99.90
2391;DHT22;22957;50.824;4.360;2023-07-20T01:53:26;19.30;99.90
2391;DHT22;22957;50.824;4.360;2023-07-20T01:55:56;19.00;99.90
2391;DHT22;22957;50.824;4.360;2023-07-20T01:58:22;19.20;99.90
2391;DHT22;22957;50.824;4.360;2023-07-20T02:00:48;19.30;99.90
2391;DHT22;22957;50.824;4.360;2023-07-20T02:03:13;19.10;99.90
2391;DHT22;22957;50.824;4.360;2023-07-20T02:05:39;19.40;99.90
2391;DHT22;22957;50.824;4.360;2023-07-20T02:08:05;19.60;99.90
2391;DHT22;22957;50.824;4.360;2023-07-20T02:10:30;19.40;99.90
2391;DHT22;22957;50.824;4.360;2023-07-20T02:12:56;19.50;99.90
2391;DHT22;22957;50.824;4.360;2023-07-20T02:15:22;19.30;99.90
2391;DHT22;22957;50.824;4.360;2023-07-20T02:17:47;19.30;99.90
2391;DHT22;22957;50.824;4.360;2023-07-20T02:20:13;19.00;99.90
2391;DHT22;22957;50.824;4.360;2023-07-20T02:22:39;19.10;99.90
2391;DHT22;22957;50.824;4.360;2023-07-20T02:25:06;19.00;99.90
2391;DHT22;22957;50.824;4.360;2023-07-20T02:27:35;19.20;99.90
2391;DHT22;22957;50.824;4.360;2023-07-20T02:30:01;19.30;99.90
2391;DHT22;22957;50.824;4.360;2023-07-20T02:32:27;19.20;99.90
2391;DHT22;22957;50.824;4.360;2023-07-20T02:34:53;19.40;99.90
2391;DHT22;22957;50.824;4.360;2023-07-20T02:37:19;19.20;99.90
2391;DHT22;22957;50.824;4.360;2023-07-20T02:39:44;19.00;99.90
2391;DHT22;22957;50.824;4.360;2023-07-20T02:42:10;19.00;99.90
2391;DHT22;22957;50.824;4.360;2023-07-20T02:44:35;19.00;99.90
2391;DHT22;22957;50.824;4.360;2023-07-20T02:47:01;18.90;99.90
2391;DHT22;22957;50.824;4.360;2023-07-20T02:49:27;18.90;99.90
2391;DHT22;22957;50.824;4.360;2023-07-20T02:51:53;19.00;99.90
2391;DHT22;22957;50.824;4.360;2023-07-20T02:54:18;19.10;99.90
2391;DHT22;22957;50.824;4.360;2023-07-20T02:56:44;19.30;99.90
2391;DHT22;22957;50.824;4.360;2023-07-20T02:59:09;19.40;99.90
2391;DHT22;22957;50.824;4.360;2023-07-20T03:01:35;19.40;99.90
2391;DHT22;22957;50.824;4.360;2023-07-20T03:04:01;19.50;99.90
2391;DHT22;22957;50.824;4.360;2023-07-20T03:06:27;19.50;99.90
2391;DHT22;22957;50.824;4.360;2023-07-20T03:08:53;19.70;99.90
2391;DHT22;22957;50.824;4.360;2023-07-20T03:11:19;19.50;99.90
2391;DHT22;22957;50.824;4.360;2023-07-20T03:13:46;19.60;99.90
2391;DHT22;22957;50.824;4.360;2023-07-20T03:16:14;19.60;99.90
2391;DHT22;22957;50.824;4.360;2023-07-20T03:18:41;19.70;99.90
2391;DHT22;22957;50.824;4.360;2023-07-20T03:21:09;19.50;99.90
2391;DHT22;22957;50.824;4.360;2023-07-20T03:23:37;19.40;99.90
2391;DHT22;22957;50.824;4.360;2023-07-20T03:26:02;19.50;99.90
2391;DHT22;22957;50.824;4.360;2023-07-20T03:28:28;19.30;99.90
2391;DHT22;22957;50.824;4.360;2023-07-20T03:30:54;19.30;99.90
2391;DHT22;22957;50.824;4.360;2023-07-20T03:33:25;19.20;99.90
2391;DHT22;22957;50.824;4.360;2023-07-20T03:35:51;19.30;99.90
2391;DHT22;22957;50.824;4.360;2023-07-20T03:38:17;19.40;99.90
2391;DHT22;22957;50.824;4.360;2023-07-20T03:43:15;19.50;99.90
2391;DHT22;22957;50.824;4.360;2023-07-20T03:45:40;19.20;99.90
2391;DHT22;22957;50.824;4.360;2023-07-20T03:48:06;19.10;99.90
2391;DHT22;22957;50.824;4.360;2023-07-20T03:50:32;18.90;99.90
2391;DHT22;22957;50.824;4.360;2023-07-20T03:52:58;19.10;99.90
2391;DHT22;22957;50.824;4.360;2023-07-20T03:55:23;19.40;99.90
2391;DHT22;22957;50.824;4.360;2023-07-20T03:57:49;19.60;99.90
2391;DHT22;22957;50.824;4.360;2023-07-20T04:00:16;19.60;99.90
2391;DHT22;22957;50.824;4.360;2023-07-20T04:02:42;19.60;99.90
2391;DHT22;22957;50.824;4.360;2023-07-20T04:05:08;19.70;99.90
2391;DHT22;22957;50.824;4.360;2023-07-20T04:07:34;19.90;99.90
2391;DHT22;22957;50.824;4.360;2023-07-20T04:09:59;19.80;99.90
2391;DHT22;22957;50.824;4.360;2023-07-20T04:12:25;19.70;99.90
2391;DHT22;22957;50.824;4.360;2023-07-20T04:14:50;19.80;99.90
2391;DHT22;22957;50.824;4.360;2023-07-20T04:17:16;19.80;99.90
2391;DHT22;22957;50.824;4.360;2023-07-20T04:19:42;19.80;99.90
2391;DHT22;22957;50.824;4.360;2023-07-20T04:22:08;19.80;99.90
2391;DHT22;22957;50.824;4.360;2023-07-20T04:24:33;19.70;99.90
2391;DHT22;22957;50.824;4.360;2023-07-20T04:26:59;20.00;99.90
2391;DHT22;22957;50.824;4.360;2023-07-20T04:29:24;20.00;99.90
2391;DHT22;22957;50.824;4.360;2023-07-20T04:31:50;20.30;99.90
2391;DHT22;22957;50.824;4.360;2023-07-20T04:34:16;20.20;99.90
2391;DHT22;22957;50.824;4.360;2023-07-20T04:36:41;20.20;99.90
2391;DHT22;22957;50.824;4.360;2023-07-20T04:39:07;20.40;99.90
2391;DHT22;22957;50.824;4.360;2023-07-20T04:41:33;20.40;99.90
2391;DHT22;22957;50.824;4.360;2023-07-20T04:43:59;20.40;99.90
2391;DHT22;22957;50.824;4.360;2023-07-20T04:46:25;20.20;99.90
2391;DHT22;22957;50.824;4.360;2023-07-20T04:48:50;20.20;99.90
2391;DHT22;22957;50.824;4.360;2023-07-20T04:51:16;20.20;99.90
2391;DHT22;22957;50.824;4.360;2023-07-20T04:53:48;20.40;99.90
2391;DHT22;22957;50.824;4.360;2023-07-20T04:56:14;20.40;99.90
2391;DHT22;22957;50.824;4.360;2023-07-20T04:58:39;20.20;99.90
2391;DHT22;22957;50.824;4.360;2023-07-20T05:01:05;20.20;99.90
2391;DHT22;22957;50.824;4.360;2023-07-20T05:03:31;20.30;99.90
2391;DHT22;22957;50.824;4.360;2023-07-20T05:05:57;20.30;99.90
2391;DHT22;22957;50.824;4.360;2023-07-20T05:08:22;20.60;99.90
2391;DHT22;22957;50.824;4.360;2023-07-20T05:10:48;20.40;99.90
2391;DHT22;22957;50.824;4.360;2023-07-20T05:13:14;20.40;99.90
2391;DHT22;22957;50.824;4.360;2023-07-20T05:15:39;20.30;99.90
2391;DHT22;22957;50.824;4.360;2023-07-20T05:18:05;20.30;99.90
2391;DHT22;22957;50.824;4.360;2023-07-20T05:20:31;20.20;99.90
2391;DHT22;22957;50.824;4.360;2023-07-20T05:22:59;20.00;99.90
2391;DHT22;22957;50.824;4.360;2023-07-20T05:25:24;20.00;99.90
2391;DHT22;22957;50.824;4.360;2023-07-20T05:27:50;20.00;99.90
2391;DHT22;22957;50.824;4.360;2023-07-20T05:30:16;20.00;99.90
2391;DHT22;22957;50.824;4.360;2023-07-20T05:32:42;20.00;99.90
2391;DHT22;22957;50.824;4.360;2023-07-20T05:35:07;20.10;99.90
2391;DHT22;22957;50.824;4.360;2023-07-20T05:37:34;20.10;99.90
2391;DHT22;22957;50.824;4.360;2023-07-20T05:39:59;20.20;99.90
2391;DHT22;22957;50.824;4.360;2023-07-20T05:42:25;20.20;99.90
2391;DHT22;22957;50.824;4.360;2023-07-20T05:44:51;20.60;99.90
2391;DHT22;22957;50.824;4.360;2023-07-20T05:47:18;20.80;99.90
2391;DHT22;22957;50.824;4.360;2023-07-20T05:49:43;20.70;99.90
2391;DHT22;22957;50.824;4.360;2023-07-20T05:52:09;20.70;99.90
2391;DHT22;22957;50.824;4.360;2023-07-20T05:54:35;20.80;99.90
2391;DHT22;22957;50.824;4.360;2023-07-20T05:57:00;20.90;99.90
2391;DHT22;22957;50.824;4.360;2023-07-20T05:59:27;20.70;99.90
2391;DHT22;22957;50.824;4.360;2023-07-20T06:01:54;20.40;99.90
2391;DHT22;22957;50.824;4.360;2023-07-20T06:04:20;20.40;99.90
2391;DHT22;22957;50.824;4.360;2023-07-20T06:06:46;20.50;99.90
2391;DHT22;22957;50.824;4.360;2023-07-20T06:09:11;20.50;99.90
2391;DHT22;22957;50.824;4.360;2023-07-20T06:11:38;20.30;99.90
2391;DHT22;22957;50.824;4.360;2023-07-20T06:14:04;20.60;99.90
2391;DHT22;22957;50.824;4.360;2023-07-20T06:16:30;20.90;99.90
2391;DHT22;22957;50.824;4.360;2023-07-20T06:18:56;21.50;99.90
2391;DHT22;22957;50.824;4.360;2023-07-20T06:21:22;21.40;99.90
2391;DHT22;22957;50.824;4.360;2023-07-20T06:23:47;21.50;99.90
2391;DHT22;22957;50.824;4.360;2023-07-20T06:26:13;21.30;99.90
2391;DHT22;22957;50.824;4.360;2023-07-20T06:28:38;21.20;99.90
2391;DHT22;22957;50.824;4.360;2023-07-20T06:31:04;21.30;99.90
2391;DHT22;22957;50.824;4.360;2023-07-20T06:33:29;21.10;99.90
2391;DHT22;22957;50.824;4.360;2023-07-20T06:35:55;21.20;99.90
2391;DHT22;22957;50.824;4.360;2023-07-20T06:38:22;21.20;99.90
2391;DHT22;22957;50.824;4.360;2023-07-20T06:40:49;21.40;99.90
2391;DHT22;22957;50.824;4.360;2023-07-20T06:43:15;21.40;99.90
2391;DHT22;22957;50.824;4.360;2023-07-20T06:45:41;21.70;99.90
2391;DHT22;22957;50.824;4.360;2023-07-20T06:48:07;21.80;99.90
2391;DHT22;22957;50.824;4.360;2023-07-20T06:50:32;21.80;99.90
2391;DHT22;22957;50.824;4.360;2023-07-20T06:52:58;21.70;99.90
2391;DHT22;22957;50.824;4.360;2023-07-20T06:55:25;21.90;99.90
2391;DHT22;22957;50.824;4.360;2023-07-20T06:57:51;22.00;99.90
2391;DHT22;22957;50.824;4.360;2023-07-20T07:00:17;21.80;99.90
2391;DHT22;22957;50.824;4.360;2023-07-20T07:02:43;22.10;99.90
2391;DHT22;22957;50.824;4.360;2023-07-20T07:05:08;22.30;99.90
2391;DHT22;22957;50.824;4.360;2023-07-20T07:07:34;22.40;99.90
2391;DHT22;22957;50.824;4.360;2023-07-20T07:10:00;22.60;99.90
2391;DHT22;22957;50.824;4.360;2023-07-20T07:12:26;22.60;99.90
2391;DHT22;22957;50.824;4.360;2023-07-20T07:14:51;23.00;99.90
2391;DHT22;22957;50.824;4.360;2023-07-20T07:17:18;22.90;99.90
2391;DHT22;22957;50.824;4.360;2023-07-20T07:19:43;22.80;99.90
2391;DHT22;22957;50.824;4.360;2023-07-20T07:22:09;23.10;99.90
2391;DHT22;22957;50.824;4.360;2023-07-20T07:24:35;21.90;99.90
2391;DHT22;22957;50.824;4.360;2023-07-20T07:27:01;21.50;99.90
2391;DHT22;22957;50.824;4.360;2023-07-20T07:29:27;20.90;99.90
2391;DHT22;22957;50.824;4.360;2023-07-20T07:31:53;21.50;99.90
2391;DHT22;22957;50.824;4.360;2023-07-20T07:34:18;22.40;99.90
2391;DHT22;22957;50.824;4.360;2023-07-20T07:36:44;22.80;99.90
2391;DHT22;22957;50.824;4.360;2023-07-20T07:39:10;22.50;99.90
2391;DHT22;22957;50.824;4.360;2023-07-20T07:41:36;22.70;99.90
2391;DHT22;22957;50.824;4.360;2023-07-20T07:44:02;22.90;99.90
2391;DHT22;22957;50.824;4.360;2023-07-20T07:46:27;23.70;99.90
2391;DHT22;22957;50.824;4.360;2023-07-20T07:48:53;23.40;99.90
2391;DHT22;22957;50.824;4.360;2023-07-20T07:51:19;23.40;99.90
2391;DHT22;22957;50.824;4.360;2023-07-20T07:53:46;23.80;99.90
2391;DHT22;22957;50.824;4.360;2023-07-20T07:56:12;23.60;99.90
2391;DHT22;22957;50.824;4.360;2023-07-20T07:58:37;24.00;99.90
2391;DHT22;22957;50.824;4.360;2023-07-20T08:01:03;24.20;99.90
2391;DHT22;22957;50.824;4.360;2023-07-20T08:03:29;24.30;99.90
2391;DHT22;22957;50.824;4.360;2023-07-20T08:05:55;23.60;99.90
2391;DHT22;22957;50.824;4.360;2023-07-20T08:08:21;23.20;99.90
2391;DHT22;22957;50.824;4.360;2023-07-20T08:10:46;21.90;99.90
2391;DHT22;22957;50.824;4.360;2023-07-20T08:13:12;21.60;99.90
2391;DHT22;22957;50.824;4.360;2023-07-20T08:15:39;22.30;99.90
2391;DHT22;22957;50.824;4.360;2023-07-20T08:18:04;24.00;99.90
2391;DHT22;22957;50.824;4.360;2023-07-20T08:20:31;26.00;99.90
2391;DHT22;22957;50.824;4.360;2023-07-20T08:22:57;27.50;99.90
2391;DHT22;22957;50.824;4.360;2023-07-20T08:25:25;28.50;99.90
2391;DHT22;22957;50.824;4.360;2023-07-20T08:27:50;29.30;99.90
2391;DHT22;22957;50.824;4.360;2023-07-20T08:30:16;29.90;99.90
2391;DHT22;22957;50.824;4.360;2023-07-20T08:32:42;29.20;99.90
2391;DHT22;22957;50.824;4.360;2023-07-20T08:35:08;28.40;99.90
2391;DHT22;22957;50.824;4.360;2023-07-20T08:37:34;26.80;99.90
2391;DHT22;22957;50.824;4.360;2023-07-20T08:40:00;27.50;99.90
2391;DHT22;22957;50.824;4.360;2023-07-20T08:42:27;28.20;99.90
2391;DHT22;22957;50.824;4.360;2023-07-20T08:44:53;27.90;99.90
2391;DHT22;22957;50.824;4.360;2023-07-20T08:47:20;28.00;99.90
2391;DHT22;22957;50.824;4.360;2023-07-20T08:49:49;28.30;99.90
2391;DHT22;22957;50.824;4.360;2023-07-20T08:52:14;29.10;99.90
2391;DHT22;22957;50.824;4.360;2023-07-20T08:54:40;30.00;99.90
2391;DHT22;22957;50.824;4.360;2023-07-20T08:57:06;30.40;99.30
2391;DHT22;22957;50.824;4.360;2023-07-20T08:59:34;30.10;99.70
2391;DHT22;22957;50.824;4.360;2023-07-20T09:02:02;29.80;99.60
2391;DHT22;22957;50.824;4.360;2023-07-20T09:04:29;30.20;99.70
2391;DHT22;22957;50.824;4.360;2023-07-20T09:06:55;29.70;99.40
2391;DHT22;22957;50.824;4.360;2023-07-20T09:09:20;30.00;99.50
2391;DHT22;22957;50.824;4.360;2023-07-20T09:11:51;30.10;97.90
2391;DHT22;22957;50.824;4.360;2023-07-20T09:14:16;29.80;98.70
2391;DHT22;22957;50.824;4.360;2023-07-20T09:16:49;30.10;97.80
2391;DHT22;22957;50.824;4.360;2023-07-20T09:19:16;28.80;97.40
2391;DHT22;22957;50.824;4.360;2023-07-20T09:21:44;29.10;98.10
2391;DHT22;22957;50.824;4.360;2023-07-20T09:24:11;28.00;98.30
2391;DHT22;22957;50.824;4.360;2023-07-20T09:26:41;29.20;98.10
2391;DHT22;22957;50.824;4.360;2023-07-20T09:29:08;30.10;97.40
2391;DHT22;22957;50.824;4.360;2023-07-20T09:31:37;32.10;95.50
2391;DHT22;22957;50.824;4.360;2023-07-20T09:34:04;32.30;94.20
2391;DHT22;22957;50.824;4.360;2023-07-20T09:36:36;32.10;93.60
2391;DHT22;22957;50.824;4.360;2023-07-20T09:39:03;32.10;93.20
2391;DHT22;22957;50.824;4.360;2023-07-20T09:41:29;31.30;93.80
2391;DHT22;22957;50.824;4.360;2023-07-20T09:43:55;31.10;94.20
2391;DHT22;22957;50.824;4.360;2023-07-20T09:46:21;30.70;94.40
2391;DHT22;22957;50.824;4.360;2023-07-20T09:48:53;30.70;94.50
2391;DHT22;22957;50.824;4.360;2023-07-20T09:51:22;30.60;94.30
2391;DHT22;22957;50.824;4.360;2023-07-20T09:53:49;30.50;95.40
2391;DHT22;22957;50.824;4.360;2023-07-20T09:56:16;31.00;94.70
2391;DHT22;22957;50.824;4.360;2023-07-20T09:58:44;31.10;94.30
2391;DHT22;22957;50.824;4.360;2023-07-20T10:01:11;31.20;93.50
2391;DHT22;22957;50.824;4.360;2023-07-20T10:03:40;30.90;93.80
2391;DHT22;22957;50.824;4.360;2023-07-20T10:06:10;31.00;93.50
2391;DHT22;22957;50.824;4.360;2023-07-20T10:08:41;31.80;93.20
2391;DHT22;22957;50.824;4.360;2023-07-20T10:11:08;32.50;91.30
2391;DHT22;22957;50.824;4.360;2023-07-20T10:13:37;31.60;93.00
2391;DHT22;22957;50.824;4.360;2023-07-20T10:16:22;32.90;92.20
2391;DHT22;22957;50.824;4.360;2023-07-20T10:18:59;33.50;90.60
2391;DHT22;22957;50.824;4.360;2023-07-20T10:21:27;34.00;90.50
2391;DHT22;22957;50.824;4.360;2023-07-20T10:23:56;34.50;88.10
2391;DHT22;22957;50.824;4.360;2023-07-20T10:26:22;34.20;85.00
2391;DHT22;22957;50.824;4.360;2023-07-20T10:28:47;33.40;86.80
2391;DHT22;22957;50.824;4.360;2023-07-20T10:31:13;32.30;86.80
2391;DHT22;22957;50.824;4.360;2023-07-20T10:33:41;31.50;90.00
2391;DHT22;22957;50.824;4.360;2023-07-20T10:36:07;31.10;90.30
2391;DHT22;22957;50.824;4.360;2023-07-20T10:38:44;31.00;90.70
2391;DHT22;22957;50.824;4.360;2023-07-20T10:41:22;31.50;90.20
2391;DHT22;22957;50.824;4.360;2023-07-20T10:43:50;31.20;91.00
2391;DHT22;22957;50.824;4.360;2023-07-20T10:49:09;31.70;89.70
2391;DHT22;22957;50.824;4.360;2023-07-20T10:51:43;32.40;88.60
2391;DHT22;22957;50.824;4.360;2023-07-20T10:54:54;32.60;85.70
2391;DHT22;22957;50.824;4.360;2023-07-20T10:56:56;31.80;87.70
2391;DHT22;22957;50.824;4.360;2023-07-20T11:01:55;31.10;88.10
2391;DHT22;22957;50.824;4.360;2023-07-20T11:04:41;31.30;88.70
2391;DHT22;22957;50.824;4.360;2023-07-20T11:07:07;30.00;90.70
2391;DHT22;22957;50.824;4.360;2023-07-20T11:09:37;30.80;88.40
2391;DHT22;22957;50.824;4.360;2023-07-20T11:12:14;31.50;88.20
2391;DHT22;22957;50.824;4.360;2023-07-20T11:14:46;32.10;84.70
2391;DHT22;22957;50.824;4.360;2023-07-20T11:17:18;31.70;85.20
2391;DHT22;22957;50.824;4.360;2023-07-20T11:19:48;31.80;86.50
2391;DHT22;22957;50.824;4.360;2023-07-20T11:22:17;31.50;85.20
2391;DHT22;22957;50.824;4.360;2023-07-20T11:24:42;30.80;87.20
2391;DHT22;22957;50.824;4.360;2023-07-20T11:27:08;30.60;86.40
2391;DHT22;22957;50.824;4.360;2023-07-20T11:29:35;30.80;87.60
2391;DHT22;22957;50.824;4.360;2023-07-20T11:32:02;31.40;86.40
2391;DHT22;22957;50.824;4.360;2023-07-20T11:34:30;32.60;85.20
2391;DHT22;22957;50.824;4.360;2023-07-20T11:36:56;32.90;83.90
2391;DHT22;22957;50.824;4.360;2023-07-20T11:39:23;32.90;82.90
2391;DHT22;22957;50.824;4.360;2023-07-20T11:41:52;32.60;83.10
2391;DHT22;22957;50.824;4.360;2023-07-20T11:44:19;31.80;84.10
2391;DHT22;22957;50.824;4.360;2023-07-20T11:46:46;31.00;85.30
2391;DHT22;22957;50.824;4.360;2023-07-20T11:49:12;29.90;88.10
2391;DHT22;22957;50.824;4.360;2023-07-20T11:51:39;29.60;89.70
2391;DHT22;22957;50.824;4.360;2023-07-20T11:54:07;30.00;89.60
2391;DHT22;22957;50.824;4.360;2023-07-20T11:56:32;29.80;90.10
2391;DHT22;22957;50.824;4.360;2023-07-20T11:58:58;29.80;89.70
2391;DHT22;22957;50.824;4.360;2023-07-20T12:01:26;29.50;90.10
2391;DHT22;22957;50.824;4.360;2023-07-20T12:03:57;28.50;90.50
2391;DHT22;22957;50.824;4.360;2023-07-20T12:06:24;28.80;90.90
2391;DHT22;22957;50.824;4.360;2023-07-20T12:08:50;29.40;90.60
2391;DHT22;22957;50.824;4.360;2023-07-20T12:11:31;29.60;90.20
2391;DHT22;22957;50.824;4.360;2023-07-20T12:13:58;29.20;90.60
2391;DHT22;22957;50.824;4.360;2023-07-20T12:16:27;28.90;91.00
2391;DHT22;22957;50.824;4.360;2023-07-20T12:19:07;27.50;91.20
2391;DHT22;22957;50.824;4.360;2023-07-20T12:21:37;27.80;92.00
2391;DHT22;22957;50.824;4.360;2023-07-20T12:24:04;28.30;91.50
2391;DHT22;22957;50.824;4.360;2023-07-20T12:26:30;28.30;91.70
2391;DHT22;22957;50.824;4.360;2023-07-20T12:28:56;28.90;91.70
2391;DHT22;22957;50.824;4.360;2023-07-20T12:31:22;29.80;91.10
2391;DHT22;22957;50.824;4.360;2023-07-20T12:33:50;31.30;88.70
2391;DHT22;22957;50.824;4.360;2023-07-20T12:36:16;30.90;88.40
2391;DHT22;22957;50.824;4.360;2023-07-20T12:38:41;30.70;89.10
2391;DHT22;22957;50.824;4.360;2023-07-20T12:41:07;31.10;87.50
2391;DHT22;22957;50.824;4.360;2023-07-20T12:43:33;28.50;90.00
2391;DHT22;22957;50.824;4.360;2023-07-20T12:45:59;25.70;93.30
2391;DHT22;22957;50.824;4.360;2023-07-20T12:48:25;27.20;92.50
2391;DHT22;22957;50.824;4.360;2023-07-20T12:50:50;28.10;91.90
2391;DHT22;22957;50.824;4.360;2023-07-20T12:53:16;27.70;92.10
2391;DHT22;22957;50.824;4.360;2023-07-20T12:55:42;27.80;91.90
2391;DHT22;22957;50.824;4.360;2023-07-20T12:58:08;27.80;91.80
2391;DHT22;22957;50.824;4.360;2023-07-20T13:00:34;27.30;92.00
2391;DHT22;22957;50.824;4.360;2023-07-20T13:03:00;26.50;92.80
2391;DHT22;22957;50.824;4.360;2023-07-20T13:05:32;25.90;94.00
2391;DHT22;22957;50.824;4.360;2023-07-20T13:07:58;26.70;93.80
2391;DHT22;22957;50.824;4.360;2023-07-20T13:10:24;26.80;93.00
2391;DHT22;22957;50.824;4.360;2023-07-20T13:12:50;27.30;93.10
2391;DHT22;22957;50.824;4.360;2023-07-20T13:15:17;27.00;94.80
2391;DHT22;22957;50.824;4.360;2023-07-20T13:17:42;26.90;96.90
2391;DHT22;22957;50.824;4.360;2023-07-20T13:20:09;26.60;95.80
2391;DHT22;22957;50.824;4.360;2023-07-20T13:22:37;25.90;98.30
2391;DHT22;22957;50.824;4.360;2023-07-20T13:25:03;25.70;99.20
2391;DHT22;22957;50.824;4.360;2023-07-20T13:27:28;25.70;99.90
2391;DHT22;22957;50.824;4.360;2023-07-20T13:29:55;25.60;99.90
2391;DHT22;22957;50.824;4.360;2023-07-20T13:32:22;25.50;99.90
2391;DHT22;22957;50.824;4.360;2023-07-20T13:34:47;25.60;99.90
2391;DHT22;22957;50.824;4.360;2023-07-20T13:37:14;25.60;99.90
2391;DHT22;22957;50.824;4.360;2023-07-20T13:39:41;26.10;99.80
2391;DHT22;22957;50.824;4.360;2023-07-20T13:42:07;25.90;99.40
2391;DHT22;22957;50.824;4.360;2023-07-20T13:44:35;25.60;99.90
2391;DHT22;22957;50.824;4.360;2023-07-20T13:47:01;25.30;99.90
2391;DHT22;22957;50.824;4.360;2023-07-20T13:49:27;26.20;98.80
2391;DHT22;22957;50.824;4.360;2023-07-20T13:51:53;26.30;97.90
2391;DHT22;22957;50.824;4.360;2023-07-20T13:54:18;25.80;98.30
2391;DHT22;22957;50.824;4.360;2023-07-20T13:56:44;24.60;98.30
2391;DHT22;22957;50.824;4.360;2023-07-20T13:59:10;25.50;99.60
2391;DHT22;22957;50.824;4.360;2023-07-20T14:01:35;25.70;98.60
2391;DHT22;22957;50.824;4.360;2023-07-20T14:04:02;25.40;99.10
2391;DHT22;22957;50.824;4.360;2023-07-20T14:06:32;25.20;99.40
2391;DHT22;22957;50.824;4.360;2023-07-20T14:08:58;26.10;98.70
2391;DHT22;22957;50.824;4.360;2023-07-20T14:11:24;25.40;98.80
2391;DHT22;22957;50.824;4.360;2023-07-20T14:13:50;25.80;99.10
2391;DHT22;22957;50.824;4.360;2023-07-20T14:16:17;25.10;98.30
2391;DHT22;22957;50.824;4.360;2023-07-20T14:18:42;26.30;98.60
2391;DHT22;22957;50.824;4.360;2023-07-20T14:21:08;26.20;97.10
2391;DHT22;22957;50.824;4.360;2023-07-20T14:23:33;23.10;99.90
2391;DHT22;22957;50.824;4.360;2023-07-20T14:25:59;24.10;99.90
2391;DHT22;22957;50.824;4.360;2023-07-20T14:28:25;23.90;99.90
2391;DHT22;22957;50.824;4.360;2023-07-20T14:30:50;24.70;99.90
2391;DHT22;22957;50.824;4.360;2023-07-20T14:33:16;24.20;99.90
2391;DHT22;22957;50.824;4.360;2023-07-20T14:35:42;24.10;99.80
2391;DHT22;22957;50.824;4.360;2023-07-20T14:38:07;24.50;99.90
2391;DHT22;22957;50.824;4.360;2023-07-20T14:40:33;23.90;99.90
2391;DHT22;22957;50.824;4.360;2023-07-20T14:42:58;23.70;99.90
2391;DHT22;22957;50.824;4.360;2023-07-20T14:45:29;25.30;99.90
2391;DHT22;22957;50.824;4.360;2023-07-20T14:47:54;24.00;99.90
2391;DHT22;22957;50.824;4.360;2023-07-20T14:50:21;24.00;99.90
2391;DHT22;22957;50.824;4.360;2023-07-20T14:52:46;25.60;99.40
2391;DHT22;22957;50.824;4.360;2023-07-20T14:55:12;23.80;99.90
2391;DHT22;22957;50.824;4.360;2023-07-20T14:57:38;24.30;99.90
2391;DHT22;22957;50.824;4.360;2023-07-20T15:00:06;24.80;99.90
2391;DHT22;22957;50.824;4.360;2023-07-20T15:02:33;24.80;99.80
2391;DHT22;22957;50.824;4.360;2023-07-20T15:04:59;24.70;99.40
2391;DHT22;22957;50.824;4.360;2023-07-20T15:07:25;24.30;99.90
2391;DHT22;22957;50.824;4.360;2023-07-20T15:09:51;24.20;99.90
2391;DHT22;22957;50.824;4.360;2023-07-20T15:12:16;23.80;99.90
2391;DHT22;22957;50.824;4.360;2023-07-20T15:14:43;23.80;99.90
2391;DHT22;22957;50.824;4.360;2023-07-20T15:17:11;24.00;99.90
2391;DHT22;22957;50.824;4.360;2023-07-20T15:19:37;23.90;99.90
2391;DHT22;22957;50.824;4.360;2023-07-20T15:22:03;22.80;99.90
2391;DHT22;22957;50.824;4.360;2023-07-20T15:24:29;22.40;99.90
2391;DHT22;22957;50.824;4.360;2023-07-20T15:26:55;22.30;99.90
2391;DHT22;22957;50.824;4.360;2023-07-20T15:29:21;22.00;99.90
2391;DHT22;22957;50.824;4.360;2023-07-20T15:31:48;21.70;99.90
2391;DHT22;22957;50.824;4.360;2023-07-20T15:34:13;21.80;99.90
2391;DHT22;22957;50.824;4.360;2023-07-20T15:36:40;22.90;99.90
2391;DHT22;22957;50.824;4.360;2023-07-20T15:39:06;23.50;99.90
2391;DHT22;22957;50.824;4.360;2023-07-20T15:41:31;24.20;99.90
2391;DHT22;22957;50.824;4.360;2023-07-20T15:43:57;24.50;99.90
2391;DHT22;22957;50.824;4.360;2023-07-20T15:48:48;24.30;99.90
2391;DHT22;22957;50.824;4.360;2023-07-20T15:51:14;23.90;99.90
2391;DHT22;22957;50.824;4.360;2023-07-20T15:53:40;23.00;99.90
2391;DHT22;22957;50.824;4.360;2023-07-20T15:56:05;22.40;99.90
2391;DHT22;22957;50.824;4.360;2023-07-20T15:58:34;21.40;99.90